Time;durP1;ratioP1;P1;durP2;ratioP2;P2;SDS_P1;SDS_P2;PMS_P1;PMS_P2;Temp;Humidity;BMP_temperature;BMP_pressure;BME280_temperature;BME280_humidity;BME280_pressure;Samples;Min_cycle;Max_cycle;Signal;HPM_P1;HPM_P2
2022/07/29 00:01:30;;;;;;;6.45;5.85;;;;;;;18.64;79.02;95467.72;5027678;28;20228;-78
2022/07/29 00:03:55;;;;;;;7.05;5.97;;;;;;;18.51;79.52;95471.16;5025412;28;20206;-78
2022/07/29 00:06:20;;;;;;;6.05;5.30;;;;;;;18.54;79.42;95469.94;5032605;28;20186;-78
2022/07/29 00:08:46;;;;;;;6.13;4.93;;;;;;;18.54;79.63;95462.03;5024517;28;20181;-78
2022/07/29 00:11:11;;;;;;;6.22;5.05;;;;;;;18.53;79.88;95463.06;5028336;28;20190;-78
2022/07/29 00:13:36;;;;;;;6.22;5.28;;;;;;;18.48;80.03;95462.84;5026948;28;20206;-79
2022/07/29 00:16:02;;;;;;;5.82;5.32;;;;;;;18.56;79.33;95470.56;5043367;28;20656;-78
2022/07/29 00:18:27;;;;;;;8.68;5.50;;;;;;;18.50;80.31;95468.72;5044739;28;20213;-79
2022/07/29 00:20:52;;;;;;;7.78;5.53;;;;;;;18.37;81.05;95461.59;5040297;28;20197;-78
2022/07/29 00:23:18;;;;;;;6.07;5.38;;;;;;;18.42;80.78;95463.66;5044411;28;20589;-78
2022/07/29 00:25:43;;;;;;;6.82;5.47;;;;;;;18.33;82.43;95455.13;5026728;28;20684;-78
2022/07/29 00:28:08;;;;;;;6.55;5.95;;;;;;;18.35;81.88;95456.53;5014171;28;20187;-78
2022/07/29 00:30:34;;;;;;;6.10;5.60;;;;;;;18.32;82.82;95458.75;5010683;28;20198;-78
2022/07/29 00:32:59;;;;;;;6.68;6.07;;;;;;;18.34;82.52;95469.88;5012322;28;20293;-79
2022/07/29 00:38:08;;;;;;;6.05;5.53;;;;;;;18.42;82.23;95455.75;5043395;28;20283;-78
2022/07/29 00:40:34;;;;;;;5.70;5.20;;;;;;;18.51;81.86;95444.03;5025432;28;20637;-78
2022/07/29 00:42:59;;;;;;;7.30;5.53;;;;;;;18.50;81.74;95448.50;5038923;28;20202;-78
2022/07/29 00:45:25;;;;;;;6.18;5.68;;;;;;;18.50;82.14;95445.06;5041846;28;20273;-78
2022/07/29 00:47:50;;;;;;;6.78;5.65;;;;;;;18.40;82.82;95443.63;5026301;28;20185;-78
2022/07/29 00:50:15;;;;;;;6.65;6.05;;;;;;;18.26;83.14;95434.06;5024361;28;20634;-78
2022/07/29 00:52:42;;;;;;;6.25;5.65;;;;;;;18.42;82.63;95435.53;5032809;28;20209;-78
2022/07/29 00:55:12;;;;;;;6.25;5.43;;;;;;;18.38;82.46;95432.50;5042213;28;20225;-78
2022/07/29 00:57:39;;;;;;;7.65;5.97;;;;;;;18.44;82.59;95427.44;5041703;28;20206;-78
2022/07/29 01:00:06;;;;;;;6.43;5.60;;;;;;;18.39;82.67;95428.84;5034577;28;20265;-78
2022/07/29 01:02:31;;;;;;;6.78;5.65;;;;;;;18.40;82.40;95435.72;5029211;28;20237;-78
2022/07/29 01:04:57;;;;;;;6.30;5.55;;;;;;;18.44;82.43;95430.88;5011354;28;20186;-78
2022/07/29 01:07:24;;;;;;;6.50;5.90;;;;;;;18.37;82.69;95430.84;5007231;28;20232;-78
2022/07/29 01:09:50;;;;;;;6.80;5.40;;;;;;;18.51;81.95;95434.34;5042310;28;20273;-78
2022/07/29 01:12:21;;;;;;;7.55;5.72;;;;;;;18.54;81.54;95435.75;5026960;28;20584;-77
2022/07/29 01:14:48;;;;;;;6.20;5.57;;;;;;;18.49;81.73;95432.94;5008543;28;20657;-78
2022/07/29 01:17:32;;;;;;;6.07;5.38;;;;;;;18.61;81.64;95429.50;5042607;28;20288;-78
2022/07/29 01:20:12;;;;;;;5.88;5.22;;;;;;;18.48;81.84;95426.03;5011598;28;20269;-78
2022/07/29 01:22:44;;;;;;;6.68;5.97;;;;;;;18.46;81.47;95423.59;5012184;28;20212;-77
2022/07/29 01:25:32;;;;;;;6.25;5.35;;;;;;;18.43;81.91;95425.81;5044579;28;20178;-78
2022/07/29 01:27:57;;;;;;;6.32;5.50;;;;;;;18.40;82.45;95422.59;5042981;28;20795;-78
2022/07/29 01:30:24;;;;;;;6.50;5.70;;;;;;;18.38;82.20;95421.19;5029448;28;20197;-78
2022/07/29 01:32:54;;;;;;;6.72;5.50;;;;;;;18.34;82.46;95425.19;5037113;28;20205;-78
2022/07/29 01:35:23;;;;;;;5.72;5.15;;;;;;;18.25;83.00;95421.94;5027632;28;20571;-77
2022/07/29 01:37:57;;;;;;;5.85;5.28;;;;;;;18.29;82.90;95410.03;5046710;28;20251;-78
2022/07/29 01:40:22;;;;;;;5.93;5.20;;;;;;;18.28;82.49;95421.53;5029435;28;20559;-77
2022/07/29 01:42:52;;;;;;;5.50;5.00;;;;;;;18.28;82.80;95418.91;5028941;28;20217;-77
2022/07/29 01:45:50;;;;;;;6.00;5.28;;;;;;;18.33;82.59;95418.31;5035784;28;20196;-78
2022/07/29 01:48:46;;;;;;;6.43;5.93;;;;;;;18.28;82.57;95421.53;5027046;28;20659;-78
2022/07/29 01:51:18;;;;;;;7.38;4.93;;;;;;;18.24;82.46;95412.44;5033969;28;20198;-78
2022/07/29 01:54:08;;;;;;;6.45;4.97;;;;;;;18.18;82.55;95415.84;5029813;28;20250;-78
2022/07/29 01:56:35;;;;;;;6.22;5.63;;;;;;;18.16;83.18;95407.34;5043876;28;20190;-78
2022/07/29 01:59:01;;;;;;;6.75;5.32;;;;;;;18.19;82.92;95406.13;5028096;28;20674;-79
2022/07/29 02:01:29;;;;;;;4.72;4.32;;;;;;;18.07;83.65;95403.28;5033496;28;20194;-79
2022/07/29 02:03:56;;;;;;;5.00;4.60;;;;;;;18.10;83.36;95406.31;5028273;28;20689;-78
2022/07/29 02:06:23;;;;;;;5.32;4.88;;;;;;;18.17;82.37;95403.72;5029819;28;20181;-78
2022/07/29 02:08:49;;;;;;;4.72;4.32;;;;;;;18.15;82.33;95407.56;5035854;28;20661;-78
2022/07/29 02:11:15;;;;;;;6.20;4.68;;;;;;;18.23;81.25;95404.75;5030502;28;20269;-78
2022/07/29 02:13:40;;;;;;;4.53;4.15;;;;;;;18.20;80.59;95407.75;5028073;28;20344;-78
2022/07/29 02:16:08;;;;;;;4.55;4.15;;;;;;;18.22;79.62;95409.19;5046027;28;20541;-77
2022/07/29 02:18:36;;;;;;;5.45;4.07;;;;;;;18.32;79.64;95412.25;5011219;28;20206;-79
2022/07/29 02:21:02;;;;;;;4.07;3.70;;;;;;;18.13;80.22;95402.50;5041905;28;20184;-78
2022/07/29 02:23:30;;;;;;;3.92;3.60;;;;;;;18.27;78.85;95401.50;5028583;28;20257;-78
2022/07/29 02:25:57;;;;;;;4.15;3.75;;;;;;;18.24;79.05;95407.19;5027748;28;20190;-78
2022/07/29 02:28:24;;;;;;;4.47;4.07;;;;;;;18.21;79.00;95404.16;5045603;28;20174;-78
2022/07/29 02:30:51;;;;;;;4.00;3.63;;;;;;;18.27;78.04;95408.59;5047220;28;20186;-78
2022/07/29 02:33:17;;;;;;;4.57;3.50;;;;;;;18.28;77.87;95413.63;5050185;28;20236;-78
2022/07/29 02:35:46;;;;;;;3.33;3.03;;;;;;;18.33;77.95;95408.63;5020532;28;20182;-78
2022/07/29 02:41:00;;;;;;;3.55;3.25;;;;;;;18.22;77.46;95409.19;5039447;28;20204;-78
2022/07/29 02:43:28;;;;;;;3.58;3.28;;;;;;;18.28;76.91;95411.00;5008532;28;20242;-79
2022/07/29 02:45:54;;;;;;;3.28;3.05;;;;;;;18.32;76.47;95414.06;5043569;28;20181;-79
2022/07/29 02:48:23;;;;;;;3.38;3.08;;;;;;;18.30;76.55;95418.72;5027061;28;20795;-78
2022/07/29 02:50:50;;;;;;;3.70;3.40;;;;;;;18.15;77.19;95416.25;5012266;28;20285;-78
2022/07/29 02:53:18;;;;;;;3.17;2.88;;;;;;;18.22;77.03;95417.09;5034697;28;20553;-78
2022/07/29 02:55:51;;;;;;;4.68;3.17;;;;;;;18.18;76.90;95421.09;5034302;28;20711;-78
2022/07/29 02:58:34;;;;;;;3.38;2.90;;;;;;;18.18;77.06;95422.91;5031416;28;20632;-78
2022/07/29 03:01:03;;;;;;;3.60;3.20;;;;;;;18.14;77.28;95422.50;5047057;28;20654;-79
2022/07/29 03:03:34;;;;;;;3.60;3.30;;;;;;;18.06;77.63;95423.50;5033048;28;20222;-79
2022/07/29 03:06:01;;;;;;;3.50;3.13;;;;;;;18.19;77.35;95422.72;5029916;28;20233;-78
2022/07/29 03:08:27;;;;;;;3.50;3.20;;;;;;;18.09;77.85;95422.28;5026011;28;20185;-78
2022/07/29 03:10:53;;;;;;;3.35;3.05;;;;;;;18.26;76.86;95417.50;5044316;28;20701;-78
2022/07/29 03:13:19;;;;;;;3.38;2.70;;;;;;;18.31;76.97;95422.97;5027353;28;20233;-79
2022/07/29 03:15:45;;;;;;;3.28;2.97;;;;;;;18.26;76.88;95417.50;5026346;28;20181;-78
2022/07/29 03:18:11;;;;;;;3.40;3.10;;;;;;;18.27;77.09;95419.09;5027620;28;20217;-78
2022/07/29 03:20:37;;;;;;;4.45;3.25;;;;;;;18.27;77.32;95419.91;5028982;28;20557;-78
2022/07/29 03:23:02;;;;;;;3.22;2.92;;;;;;;18.23;77.79;95423.97;5028185;28;20210;-79
2022/07/29 03:25:28;;;;;;;2.97;2.78;;;;;;;18.34;77.48;95418.13;5032346;28;20286;-78
2022/07/29 03:27:53;;;;;;;4.80;3.30;;;;;;;18.27;78.12;95424.38;5044209;28;20552;-78
2022/07/29 03:30:19;;;;;;;3.80;3.40;;;;;;;18.30;78.28;95410.84;5043824;28;20964;-78
2022/07/29 03:32:44;;;;;;;3.78;3.10;;;;;;;18.39;78.32;95407.81;5029473;28;20284;-77
2022/07/29 03:35:09;;;;;;;4.65;3.35;;;;;;;18.37;78.48;95415.09;5032355;28;20659;-78
2022/07/29 03:37:36;;;;;;;3.90;3.47;;;;;;;18.35;79.13;95411.84;5027867;28;20674;-78
2022/07/29 03:40:03;;;;;;;4.10;3.60;;;;;;;18.34;79.61;95415.50;5042739;28;20914;-78
2022/07/29 03:42:31;;;;;;;4.15;3.80;;;;;;;18.30;79.55;95411.66;5035152;28;20202;-79
2022/07/29 03:44:58;;;;;;;4.80;4.30;;;;;;;18.22;80.41;95411.81;5027897;28;20182;-78
2022/07/29 03:47:26;;;;;;;5.45;4.47;;;;;;;18.20;81.07;95408.59;5014316;28;20190;-79
2022/07/29 03:49:52;;;;;;;4.57;4.13;;;;;;;18.08;81.71;95410.16;5024496;28;20190;-78
2022/07/29 03:52:18;;;;;;;5.03;4.40;;;;;;;18.09;82.23;95409.16;5030358;28;20312;-78
2022/07/29 03:54:43;;;;;;;5.85;4.38;;;;;;;18.14;81.88;95412.00;5033627;28;20233;-78
2022/07/29 03:57:10;;;;;;;6.40;4.50;;;;;;;18.16;81.94;95412.59;5025235;28;20209;-78
2022/07/29 03:59:37;;;;;;;4.93;4.43;;;;;;;18.14;82.42;95408.56;5036110;28;20200;-79
2022/07/29 04:02:03;;;;;;;4.88;4.57;;;;;;;18.24;81.53;95409.00;5024568;28;20198;-79
2022/07/29 04:04:32;;;;;;;4.95;4.35;;;;;;;18.24;81.77;95414.25;5027670;28;20677;-78
2022/07/29 04:06:57;;;;;;;4.93;4.35;;;;;;;18.25;81.70;95414.06;5026054;28;20591;-82
2022/07/29 04:09:23;;;;;;;5.13;4.60;;;;;;;18.26;81.29;95418.28;5041834;28;20179;-79
2022/07/29 04:11:48;;;;;;;6.72;5.10;;;;;;;18.26;81.68;95415.66;5048411;28;20186;-79
2022/07/29 04:14:13;;;;;;;5.88;4.70;;;;;;;18.40;80.96;95417.34;5027031;28;20704;-79
2022/07/29 04:16:39;;;;;;;5.88;4.88;;;;;;;18.46;80.91;95415.72;5026388;28;20196;-78
2022/07/29 04:19:04;;;;;;;6.80;4.57;;;;;;;18.13;82.30;95420.91;5027895;28;20228;-78
2022/07/29 04:21:29;;;;;;;4.82;4.43;;;;;;;18.15;81.86;95418.88;5024212;28;20577;-78
2022/07/29 04:23:55;;;;;;;5.03;4.50;;;;;;;18.19;81.70;95420.09;5010671;28;20685;-78
2022/07/29 04:26:20;;;;;;;4.90;4.50;;;;;;;18.30;81.23;95419.53;5024078;28;20252;-79
2022/07/29 04:28:46;;;;;;;5.20;4.70;;;;;;;18.20;81.18;95419.09;5027410;28;20194;-78
2022/07/29 04:31:12;;;;;;;5.30;4.82;;;;;;;18.12;82.26;95432.41;5026229;28;20196;-78
2022/07/29 04:33:38;;;;;;;5.20;4.70;;;;;;;18.16;82.40;95423.13;5026907;28;20209;-79
2022/07/29 04:36:04;;;;;;;5.53;5.13;;;;;;;18.30;81.34;95427.41;5042659;28;20196;-79
2022/07/29 04:38:29;;;;;;;4.88;4.47;;;;;;;18.56;80.46;95425.88;5024039;28;20248;-79
2022/07/29 04:40:54;;;;;;;5.22;4.82;;;;;;;18.71;80.02;95423.88;5026517;28;20209;-80
2022/07/29 04:43:19;;;;;;;6.43;5.25;;;;;;;18.67;79.20;95428.72;5023088;28;20202;-81
2022/07/29 04:45:45;;;;;;;5.93;5.20;;;;;;;18.59;80.08;95433.34;5026084;28;20638;-79
2022/07/29 04:48:10;;;;;;;5.93;5.32;;;;;;;19.08;79.29;95432.19;5041404;28;20195;-80
2022/07/29 04:50:38;;;;;;;5.97;4.82;;;;;;;20.53;72.65;95436.28;5028120;28;20189;-78
2022/07/29 04:53:03;;;;;;;6.32;4.20;;;;;;;22.24;63.92;95444.50;5023368;28;20229;-78
2022/07/29 04:55:29;;;;;;;6.25;4.35;;;;;;;23.01;61.36;95444.72;5008975;28;20662;-79
2022/07/29 04:57:54;;;;;;;4.13;3.72;;;;;;;24.25;54.35;95444.56;5026434;28;20206;-80
2022/07/29 05:00:19;;;;;;;4.72;3.80;;;;;;;24.18;54.09;95441.22;5010148;28;20270;-80
2022/07/29 05:02:44;;;;;;;3.95;3.65;;;;;;;24.41;52.41;95443.84;5029379;28;20214;-80
2022/07/29 05:05:10;;;;;;;6.78;3.67;;;;;;;24.45;52.63;95444.16;5026003;28;20196;-80
2022/07/29 05:07:35;;;;;;;4.55;3.85;;;;;;;23.20;56.46;95437.47;5026463;28;20189;-80
2022/07/29 05:10:00;;;;;;;4.38;3.88;;;;;;;23.83;55.35;95447.41;5030717;28;20213;-82
2022/07/29 05:12:26;;;;;;;4.50;4.10;;;;;;;23.75;55.66;95445.09;5023084;28;20206;-81
2022/07/29 05:14:51;;;;;;;4.63;4.22;;;;;;;23.46;56.02;95452.13;5042142;28;20178;-80
2022/07/29 05:17:17;;;;;;;4.70;4.30;;;;;;;23.53;56.92;95441.41;5013750;28;20208;-80
2022/07/29 05:19:42;;;;;;;4.45;4.00;;;;;;;24.93;52.30;95449.03;5011118;28;20231;-80
2022/07/29 05:22:07;;;;;;;5.55;3.60;;;;;;;25.39;50.13;95455.13;5047127;28;20194;-79
2022/07/29 05:24:32;;;;;;;4.35;4.05;;;;;;;26.00;48.82;95456.03;5047226;28;20224;-77
2022/07/29 05:26:58;;;;;;;5.53;3.80;;;;;;;26.72;45.84;95452.38;5026528;28;20186;-77
2022/07/29 05:29:23;;;;;;;3.60;3.30;;;;;;;26.63;45.49;95462.66;5029408;28;20204;-79
2022/07/29 05:31:48;;;;;;;4.90;3.85;;;;;;;26.17;47.65;95459.44;5041954;28;20182;-80
2022/07/29 05:34:14;;;;;;;4.30;3.90;;;;;;;26.49;47.04;95464.91;5024874;28;20184;-82
2022/07/29 05:36:39;;;;;;;4.40;3.75;;;;;;;27.17;45.06;95462.69;5024343;28;20192;-81
2022/07/29 05:39:04;;;;;;;6.13;3.50;;;;;;;26.97;45.06;95465.94;5005915;28;20641;-81
2022/07/29 05:41:32;;;;;;;5.43;3.65;;;;;;;27.42;44.27;95467.41;5041481;28;20209;-80
2022/07/29 05:43:58;;;;;;;4.05;3.65;;;;;;;25.86;46.78;95466.22;5023417;28;20729;-80
2022/07/29 05:46:23;;;;;;;4.50;4.10;;;;;;;25.50;48.91;95472.84;5044056;28;20265;-80
2022/07/29 05:48:48;;;;;;;5.05;3.92;;;;;;;24.78;50.41;95472.66;5023274;28;20182;-80
2022/07/29 05:51:14;;;;;;;4.07;3.72;;;;;;;24.43;52.54;95472.81;5023485;28;20186;-79
2022/07/29 05:53:39;;;;;;;4.13;3.83;;;;;;;23.73;53.86;95473.69;5040985;28;20548;-80
2022/07/29 05:56:05;;;;;;;4.53;4.13;;;;;;;23.65;54.88;95474.03;5006145;28;20191;-82
2022/07/29 05:58:30;;;;;;;4.65;4.28;;;;;;;23.78;54.24;95473.03;5007720;28;20201;-81
2022/07/29 06:00:58;;;;;;;5.93;4.30;;;;;;;23.52;55.00;95472.41;5013430;28;20345;-83
2022/07/29 06:03:30;;;;;;;6.50;4.65;;;;;;;23.32;57.08;95483.34;5010769;28;20208;-84
2022/07/29 06:05:55;;;;;;;5.28;4.38;;;;;;;23.82;55.00;95482.13;5033017;28;20186;-83
2022/07/29 06:08:20;;;;;;;4.47;4.10;;;;;;;23.65;54.86;95487.31;5049334;28;20178;-83
2022/07/29 06:10:46;;;;;;;5.05;4.55;;;;;;;23.26;55.97;95489.56;5029074;28;20224;-83
2022/07/29 06:13:12;;;;;;;4.80;4.30;;;;;;;23.24;55.71;95491.63;5043470;28;20716;-82
2022/07/29 06:15:37;;;;;;;5.45;4.88;;;;;;;22.74;58.03;95491.91;5046232;28;20828;-82
2022/07/29 06:18:03;;;;;;;5.18;4.65;;;;;;;23.63;56.44;95494.69;5048436;28;20233;-82
2022/07/29 06:20:29;;;;;;;5.00;4.50;;;;;;;22.77;58.05;95495.94;5034142;28;20201;-84
2022/07/29 06:22:55;;;;;;;5.10;4.63;;;;;;;23.21;57.27;95493.91;5047364;28;20544;-83
2022/07/29 06:25:20;;;;;;;6.05;3.97;;;;;;;25.28;50.63;95504.66;5018017;28;20274;-83
2022/07/29 06:27:46;;;;;;;4.97;4.18;;;;;;;25.96;47.63;95495.59;5011796;28;20228;-81
2022/07/29 06:30:11;;;;;;;4.63;3.78;;;;;;;26.41;46.91;95505.25;5029997;28;20233;-82
2022/07/29 06:32:37;;;;;;;4.93;4.50;;;;;;;26.31;45.66;95509.63;5013149;28;20587;-81
2022/07/29 06:35:03;;;;;;;5.00;4.05;;;;;;;25.70;48.58;95509.56;5028570;28;20186;-81
2022/07/29 06:37:28;;;;;;;4.50;4.10;;;;;;;25.90;47.52;95517.88;5002365;28;20233;-80
2022/07/29 06:40:59;;;;;;;4.22;3.92;;;;;;;26.49;46.22;95507.50;5047027;28;20185;-81
2022/07/29 06:42:43;;;;;;;5.22;3.60;;;;;;;30.55;37.41;95517.59;5031335;28;20744;-80
2022/07/29 06:45:09;;;;;;;4.72;4.32;;;;;;;29.15;39.14;95510.19;5013778;28;20681;-79
2022/07/29 06:47:34;;;;;;;3.90;3.35;;;;;;;27.55;42.66;95519.50;5032999;28;20197;-82
2022/07/29 06:49:59;;;;;;;6.15;4.70;;;;;;;26.67;45.13;95514.38;5033664;28;20191;-82
2022/07/29 06:52:25;;;;;;;4.18;3.78;;;;;;;26.49;46.38;95528.81;5011562;28;20210;-80
2022/07/29 06:54:50;;;;;;;5.13;4.13;;;;;;;25.57;48.69;95518.69;5047869;28;20190;-81
2022/07/29 06:57:15;;;;;;;5.35;3.97;;;;;;;26.00;47.61;95519.88;5046968;28;20210;-82
2022/07/29 06:59:41;;;;;;;4.35;3.90;;;;;;;26.57;45.47;95514.25;5030411;28;20680;-81
2022/07/29 07:02:06;;;;;;;5.30;4.00;;;;;;;26.05;46.90;95519.13;5044112;28;20251;-82
2022/07/29 07:04:31;;;;;;;4.25;3.85;;;;;;;25.00;50.27;95515.28;5030307;28;20218;-82
2022/07/29 07:06:57;;;;;;;6.53;4.07;;;;;;;25.45;49.14;95517.97;5030120;28;20186;-82
2022/07/29 07:09:22;;;;;;;4.68;4.38;;;;;;;25.38;49.24;95528.75;5031220;28;20594;-82
2022/07/29 07:11:48;;;;;;;5.03;4.18;;;;;;;26.75;44.63;95531.75;5035025;28;20643;-82
2022/07/29 07:14:13;;;;;;;4.80;3.90;;;;;;;28.46;40.69;95538.03;5012501;28;20208;-83
2022/07/29 07:16:38;;;;;;;4.55;4.00;;;;;;;28.43;39.53;95531.34;5046381;28;20205;-83
2022/07/29 07:19:04;;;;;;;6.10;4.10;;;;;;;28.43;40.24;95539.34;5026890;28;20217;-83
2022/07/29 07:21:29;;;;;;;7.07;5.35;;;;;;;28.17;40.27;95538.38;5027960;28;20696;-83
2022/07/29 07:23:54;;;;;;;6.65;4.45;;;;;;;27.88;40.96;95543.28;5014385;28;20229;-84
2022/07/29 07:26:20;;;;;;;4.18;3.78;;;;;;;27.87;41.06;95544.34;5046137;28;20191;-84
2022/07/29 07:28:45;;;;;;;5.07;4.63;;;;;;;28.14;39.21;95544.25;5033105;28;20696;-83
2022/07/29 07:31:11;;;;;;;4.53;3.90;;;;;;;27.34;40.66;95545.19;5045874;28;20182;-83
2022/07/29 07:33:37;;;;;;;4.00;3.60;;;;;;;26.88;41.76;95541.25;5034132;28;20206;-82
2022/07/29 07:36:03;;;;;;;5.72;3.92;;;;;;;26.40;43.46;95548.13;5013124;28;20660;-83
2022/07/29 07:38:28;;;;;;;6.80;3.88;;;;;;;26.59;42.08;95552.09;5036666;28;20697;-83
2022/07/29 07:40:53;;;;;;;4.85;4.05;;;;;;;26.08;43.80;95548.75;5016244;28;20313;-82
2022/07/29 07:43:19;;;;;;;6.53;4.03;;;;;;;25.91;44.13;95542.63;5027795;28;20225;-83
2022/07/29 07:45:44;;;;;;;6.10;4.50;;;;;;;26.90;43.28;95549.78;5031556;28;20189;-81
2022/07/29 07:48:10;;;;;;;4.43;4.03;;;;;;;26.60;43.58;95559.03;5026755;28;20179;-83
2022/07/29 07:50:35;;;;;;;5.88;4.32;;;;;;;26.49;42.69;95551.97;5035024;28;20557;-83
2022/07/29 07:53:01;;;;;;;4.50;4.10;;;;;;;27.15;40.29;95547.44;5045565;28;20204;-83
2022/07/29 07:55:27;;;;;;;5.25;4.30;;;;;;;28.15;39.16;95547.72;5046058;28;20182;-82
2022/07/29 07:57:53;;;;;;;4.30;3.75;;;;;;;28.05;37.81;95544.97;5022492;28;20226;-81
2022/07/29 08:00:19;;;;;;;7.25;4.03;;;;;;;28.09;37.42;95543.41;5019386;28;20196;-82
2022/07/29 08:02:45;;;;;;;5.15;4.18;;;;;;;27.17;39.90;95539.16;5009211;28;20590;-82
2022/07/29 08:05:12;;;;;;;7.47;3.90;;;;;;;27.44;38.98;95541.81;5027118;28;20189;-82
2022/07/29 08:07:37;;;;;;;10.85;4.32;;;;;;;27.10;39.82;95540.16;5017725;28;20177;-82
2022/07/29 08:10:06;;;;;;;9.30;5.05;;;;;;;26.80;40.35;95548.63;5009853;28;20186;-83
2022/07/29 08:12:31;;;;;;;4.90;4.40;;;;;;;26.26;42.06;95556.44;5044221;28;20285;-82
2022/07/29 08:14:56;;;;;;;6.85;4.10;;;;;;;27.08;40.25;95546.81;5043555;28;20185;-82
2022/07/29 08:17:22;;;;;;;6.47;4.30;;;;;;;26.72;41.11;95551.72;5010711;28;20314;-83
2022/07/29 08:19:48;;;;;;;4.32;3.90;;;;;;;27.43;39.72;95553.56;5040808;28;20655;-82
2022/07/29 08:22:13;;;;;;;5.18;4.50;;;;;;;27.60;39.86;95540.91;5010258;28;20216;-83
2022/07/29 08:24:55;;;;;;;9.90;4.63;;;;;;;27.40;39.59;95549.53;5033930;28;20584;-80
2022/07/29 08:27:21;;;;;;;8.85;4.88;;;;;;;26.99;40.05;95548.28;5044042;28;20193;-85
2022/07/29 08:29:46;;;;;;;10.70;4.40;;;;;;;27.27;39.13;95549.94;5017420;28;20186;-82
2022/07/29 08:32:11;;;;;;;7.40;4.22;;;;;;;27.20;39.76;95549.31;5031311;28;20252;-83
2022/07/29 08:34:37;;;;;;;4.75;4.35;;;;;;;27.14;39.48;95556.47;5034282;28;20211;-82
2022/07/29 08:37:02;;;;;;;7.32;4.10;;;;;;;26.20;42.09;95554.75;5013570;28;20250;-82
2022/07/29 08:39:27;;;;;;;5.10;4.50;;;;;;;26.31;41.29;95563.69;5026958;28;20349;-81
2022/07/29 08:41:54;;;;;;;7.55;4.63;;;;;;;25.57;42.64;95557.75;5011117;28;20296;-80
2022/07/29 08:44:21;;;;;;;8.48;4.75;;;;;;;25.64;43.58;95551.25;5027681;28;20198;-80
2022/07/29 08:46:47;;;;;;;6.32;4.70;;;;;;;26.36;42.15;95560.28;5046376;28;20238;-82
2022/07/29 08:49:12;;;;;;;8.63;4.35;;;;;;;26.74;40.46;95562.94;5028984;28;20177;-82
2022/07/29 08:51:39;;;;;;;6.30;4.68;;;;;;;26.19;41.15;95555.00;5023281;28;20193;-81
2022/07/29 08:54:05;;;;;;;7.60;4.10;;;;;;;26.38;41.27;95544.91;5027233;28;20297;-83
2022/07/29 08:56:31;;;;;;;5.43;4.50;;;;;;;26.32;40.14;95559.16;5026837;28;20232;-81
2022/07/29 08:58:58;;;;;;;7.38;4.43;;;;;;;26.40;40.56;95556.91;5025225;28;20628;-79
2022/07/29 09:01:25;;;;;;;8.90;4.90;;;;;;;26.84;39.36;95556.91;5029587;28;20212;-81
2022/07/29 09:03:55;;;;;;;7.30;4.50;;;;;;;27.09;39.28;95551.88;5030219;28;20213;-81
2022/07/29 09:06:21;;;;;;;4.93;4.07;;;;;;;26.39;39.29;95562.47;5027451;28;20190;-83
2022/07/29 09:08:46;;;;;;;7.15;4.30;;;;;;;27.01;38.24;95562.16;5010927;28;20659;-82
2022/07/29 09:11:13;;;;;;;6.90;4.60;;;;;;;26.82;39.01;95570.47;5024817;28;20220;-82
2022/07/29 09:13:38;;;;;;;7.80;4.50;;;;;;;26.73;37.84;95574.63;5026569;28;20709;-82
2022/07/29 09:16:04;;;;;;;7.75;4.35;;;;;;;26.44;37.63;95571.34;5040272;28;20194;-82
2022/07/29 09:18:34;;;;;;;6.03;4.60;;;;;;;26.52;38.12;95570.13;5005562;28;20298;-83
2022/07/29 09:24:01;;;;;;;7.10;4.53;;;;;;;26.80;37.56;95563.81;5030281;28;20255;-82
2022/07/29 09:26:31;;;;;;;8.82;4.10;;;;;;;26.37;38.40;95559.25;5041243;28;20178;-83
2022/07/29 09:28:56;;;;;;;5.85;3.92;;;;;;;26.97;37.44;95555.72;5023671;28;20177;-82
2022/07/29 09:31:37;;;;;;;7.22;4.88;;;;;;;26.45;37.88;95549.00;5025435;28;20743;-82
2022/07/29 09:34:05;;;;;;;5.38;4.10;;;;;;;26.57;38.10;95559.53;5023277;28;20204;-83
2022/07/29 09:36:30;;;;;;;4.05;3.75;;;;;;;26.75;37.40;95550.41;5041579;28;20205;-82
2022/07/29 09:39:00;;;;;;;4.50;3.92;;;;;;;26.69;36.99;95562.88;5023759;28;20210;-83
2022/07/29 09:41:26;;;;;;;7.63;4.07;;;;;;;26.60;37.37;95551.06;5007820;28;20197;-81
2022/07/29 09:43:59;;;;;;;4.68;3.90;;;;;;;26.88;37.24;95542.06;5040981;28;20236;-80
2022/07/29 09:46:25;;;;;;;10.18;4.05;;;;;;;27.18;37.76;95536.25;5009654;28;20558;-81
2022/07/29 09:49:10;;;;;;;6.72;3.55;;;;;;;26.75;36.98;95543.22;5025384;28;20177;-82
2022/07/29 09:51:35;;;;;;;6.15;3.60;;;;;;;26.93;36.35;95535.97;5029124;28;20182;-84
2022/07/29 09:54:03;;;;;;;5.75;3.85;;;;;;;26.90;36.21;95539.13;5045380;28;20296;-82
2022/07/29 09:56:42;;;;;;;6.68;3.20;;;;;;;26.88;35.82;95538.59;5032334;28;20746;-82
2022/07/29 09:59:08;;;;;;;6.10;3.50;;;;;;;26.82;35.04;95548.38;5010292;28;20746;-82
2022/07/29 10:01:34;;;;;;;5.90;3.60;;;;;;;27.16;34.77;95542.91;5037937;28;20200;-82
2022/07/29 10:03:59;;;;;;;7.65;3.35;;;;;;;27.05;35.60;95547.31;5034637;28;20207;-82
2022/07/29 10:06:26;;;;;;;11.60;3.72;;;;;;;26.77;35.09;95545.66;5013624;28;20178;-82
2022/07/29 10:08:52;;;;;;;5.30;3.75;;;;;;;25.97;36.44;95547.78;5031138;28;20177;-83
2022/07/29 10:11:18;;;;;;;7.47;3.25;;;;;;;26.54;36.49;95554.69;5012306;28;20269;-83
2022/07/29 10:13:45;;;;;;;3.85;3.40;;;;;;;27.19;35.66;95545.06;5013328;28;20557;-83
2022/07/29 10:16:12;;;;;;;4.88;3.40;;;;;;;27.63;34.50;95541.19;5035813;28;20181;-83
2022/07/29 10:18:38;;;;;;;5.35;3.42;;;;;;;27.81;34.07;95556.03;5034787;28;20202;-83
2022/07/29 10:21:03;;;;;;;3.97;3.22;;;;;;;28.18;33.32;95547.19;5045829;28;20178;-81
2022/07/29 10:23:29;;;;;;;5.97;3.35;;;;;;;27.98;33.58;95547.06;5044691;28;20206;-83
2022/07/29 10:25:55;;;;;;;6.43;3.42;;;;;;;28.29;33.11;95540.91;5012441;28;20208;-82
2022/07/29 10:28:20;;;;;;;9.48;3.83;;;;;;;27.90;32.75;95551.81;5024458;28;20206;-82
2022/07/29 10:30:46;;;;;;;5.90;3.28;;;;;;;27.80;33.00;95551.75;5044042;28;20248;-83
2022/07/29 10:33:36;;;;;;;5.53;3.50;;;;;;;27.39;33.37;95553.25;5040205;28;20214;-83
2022/07/29 10:36:04;;;;;;;8.02;3.58;;;;;;;27.55;33.19;95551.50;5027776;28;20210;-83
2022/07/29 10:38:43;;;;;;;4.03;3.20;;;;;;;27.77;34.42;95549.59;5043865;28;20221;-83
2022/07/29 10:41:28;;;;;;;6.95;3.72;;;;;;;28.10;33.17;95548.50;5046163;28;20194;-83
2022/07/29 10:43:56;;;;;;;3.70;3.20;;;;;;;27.69;32.56;95541.25;5030421;28;20561;-83
2022/07/29 10:46:22;;;;;;;3.70;3.20;;;;;;;27.16;33.80;95538.38;5009946;28;20185;-83
2022/07/29 10:49:24;;;;;;;6.63;3.42;;;;;;;26.91;34.84;95527.41;5062533;28;20174;-82
2022/07/29 10:52:07;;;;;;;8.20;3.35;;;;;;;26.57;34.27;95534.75;5062195;28;20166;-82
2022/07/29 10:54:50;;;;;;;6.75;3.20;;;;;;;26.44;34.43;95538.59;5044515;28;20184;-82
2022/07/29 10:57:16;;;;;;;4.60;3.90;;;;;;;26.42;34.76;95533.53;5068966;28;20182;-83
2022/07/29 10:59:45;;;;;;;6.60;3.03;;;;;;;26.71;35.18;95533.34;5067357;28;20538;-82
2022/07/29 11:02:37;;;;;;;6.63;3.13;;;;;;;27.03;34.06;95528.94;5026872;28;20198;-82
2022/07/29 11:05:03;;;;;;;5.70;3.65;;;;;;;27.03;33.65;95528.09;5041472;28;20213;-83
2022/07/29 11:07:29;;;;;;;7.38;3.47;;;;;;;27.05;33.99;95531.34;5035833;28;20186;-82
2022/07/29 11:10:13;;;;;;;4.57;3.38;;;;;;;27.08;33.43;95536.16;5045945;28;20273;-84
2022/07/29 11:12:38;;;;;;;6.50;3.45;;;;;;;27.32;33.63;95532.13;5048573;28;20209;-82
2022/07/29 11:15:08;;;;;;;5.27;3.57;;;;;;;27.37;33.10;95523.34;5046025;28;20201;-83
2022/07/29 11:17:51;;;;;;;7.95;3.55;;;;;;;26.92;34.02;95531.69;5027065;28;20602;-84
2022/07/29 11:20:44;;;;;;;5.40;3.70;;;;;;;26.68;34.38;95526.66;5029977;28;20193;-83
2022/07/29 11:23:27;;;;;;;6.03;3.50;;;;;;;27.13;34.34;95528.22;5013783;28;20213;-83
2022/07/29 11:26:21;;;;;;;6.72;3.75;;;;;;;27.00;34.05;95539.25;5029455;28;20236;-83
2022/07/29 11:28:59;;;;;;;4.43;3.22;;;;;;;27.29;33.51;95534.47;5048042;28;20570;-83
2022/07/29 11:31:33;;;;;;;5.18;3.55;;;;;;;27.13;34.10;95533.56;5042987;28;20205;-83
2022/07/29 11:34:18;;;;;;;4.97;3.30;;;;;;;26.86;33.76;95538.00;5043931;28;20204;-83
2022/07/29 11:37:09;;;;;;;5.72;3.67;;;;;;;27.24;33.20;95529.91;5029626;28;20190;-83
2022/07/29 11:39:38;;;;;;;7.13;4.07;;;;;;;27.31;33.63;95533.19;5051381;28;20650;-83
2022/07/29 11:42:16;;;;;;;6.53;3.72;;;;;;;27.06;33.26;95540.94;5013570;28;20221;-82
2022/07/29 11:44:53;;;;;;;5.38;3.55;;;;;;;27.05;34.32;95539.34;5030487;28;20186;-83
2022/07/29 11:47:20;;;;;;;6.05;3.60;;;;;;;26.94;34.36;95535.69;5051255;28;20657;-84